高雄終端管制區 - 高雄雷達席

SPECI RCKH 040120Z 35006KT 310V010 5000 HZ FEW015 BKN050 BKN070 24/18 Q1018 NOSIG RMK A3006=

站台狀態:Online
最後更新:2020-04-04 09:00:02